Time;durP1;ratioP1;P1;durP2;ratioP2;P2;SDS_P1;SDS_P2;PMS_P1;PMS_P2;Temp;Humidity;BMP_temperature;BMP_pressure;BME280_temperature;BME280_humidity;BME280_pressure;Samples;Min_cycle;Max_cycle;Signal;HPM_P1;HPM_P2
2024/02/29 00:02:20;;;;;;;38.53;14.00;;;;;;;4.65;79.76;101362.41;124313;1099;104268;-79
2024/02/29 00:04:51;;;;;;;33.83;13.27;;;;;;;4.66;79.55;101365.13;123782;1099;104269;-79
2024/02/29 00:07:22;;;;;;;35.90;13.90;;;;;;;4.67;79.96;101364.34;123976;1099;104402;-80
2024/02/29 00:09:54;;;;;;;35.97;12.97;;;;;;;4.71;79.53;101367.17;124215;1099;104274;-79
2024/02/29 00:12:25;;;;;;;33.50;13.20;;;;;;;4.70;80.18;101355.84;124189;1099;104277;-78
2024/02/29 00:14:57;;;;;;;36.87;13.10;;;;;;;4.74;79.68;101354.39;124146;1099;110569;-79
2024/02/29 00:17:28;;;;;;;33.45;13.55;;;;;;;4.76;79.66;101358.00;124144;1099;104252;-80
2024/02/29 00:19:59;;;;;;;32.77;13.07;;;;;;;4.78;79.64;101351.20;124222;1099;104408;-79
2024/02/29 00:22:30;;;;;;;37.63;13.43;;;;;;;4.81;79.81;101341.02;124411;1099;104169;-79
2024/02/29 00:25:02;;;;;;;32.47;12.97;;;;;;;4.82;79.87;101341.13;124515;1099;105587;-80
2024/02/29 00:27:33;;;;;;;33.73;12.47;;;;;;;4.84;79.95;101331.73;124083;1099;104281;-80
2024/02/29 00:30:08;;;;;;;35.07;12.40;;;;;;;4.84;79.88;101334.34;124354;1098;104226;-80
2024/02/29 00:32:39;;;;;;;28.57;11.73;;;;;;;4.85;79.78;101335.27;125342;1098;104651;-80
2024/02/29 00:35:10;;;;;;;29.23;11.67;;;;;;;4.82;80.16;101333.33;124304;1099;104355;-79
2024/02/29 00:37:41;;;;;;;32.77;11.80;;;;;;;4.83;80.15;101339.42;124144;1099;104274;-80
2024/02/29 00:40:14;;;;;;;30.77;11.70;;;;;;;4.83;80.30;101335.15;124088;1099;104245;-79
2024/02/29 00:42:46;;;;;;;29.53;11.97;;;;;;;4.83;79.91;101329.02;123888;1102;104293;-80
2024/02/29 00:45:17;;;;;;;28.17;11.53;;;;;;;4.84;80.42;101323.94;123963;1098;104363;-79
2024/02/29 00:47:51;;;;;;;29.70;11.47;;;;;;;4.86;80.25;101318.84;124028;1099;104332;-80
2024/02/29 00:50:22;;;;;;;25.80;11.47;;;;;;;4.89;80.43;101326.86;124188;1099;104302;-80
2024/02/29 00:52:53;;;;;;;27.67;10.97;;;;;;;4.93;79.74;101325.41;123979;1099;104271;-79
2024/02/29 00:55:30;;;;;;;30.00;11.37;;;;;;;4.96;80.61;101325.63;124178;1099;104270;-79
2024/02/29 00:58:01;;;;;;;31.40;11.47;;;;;;;4.97;80.12;101320.54;124095;1099;104367;-79
2024/02/29 01:00:32;;;;;;;28.80;11.93;;;;;;;4.98;80.29;101321.43;124169;1099;104319;-79
2024/02/29 01:03:03;;;;;;;29.77;11.60;;;;;;;4.99;80.44;101316.34;124120;1099;104271;-80
2024/02/29 01:05:34;;;;;;;27.67;11.27;;;;;;;5.01;80.39;101319.94;124006;1098;104198;-80
2024/02/29 01:08:07;;;;;;;26.23;11.73;;;;;;;5.02;80.29;101315.66;124279;1099;104198;-79
2024/02/29 01:10:38;;;;;;;32.47;11.90;;;;;;;5.06;80.12;101319.38;124095;1098;104310;-80
2024/02/29 01:13:10;;;;;;;33.87;12.17;;;;;;;5.06;80.37;101309.86;124057;1099;104302;-79
2024/02/29 01:15:41;;;;;;;29.43;12.50;;;;;;;5.09;80.46;101312.68;124174;1099;104283;-80
2024/02/29 01:18:12;;;;;;;29.03;11.07;;;;;;;5.12;80.22;101314.61;124201;1098;104242;-79
2024/02/29 01:20:44;;;;;;;30.97;11.33;;;;;;;5.13;80.32;101309.52;124190;1099;104203;-79
2024/02/29 01:23:15;;;;;;;29.73;11.50;;;;;;;5.16;79.83;101311.44;124254;1099;104166;-80
2024/02/29 01:25:46;;;;;;;28.27;11.00;;;;;;;5.18;80.11;101310.73;124220;1099;104232;-79
2024/02/29 01:28:17;;;;;;;31.70;12.05;;;;;;;5.22;80.35;101304.95;123881;1099;104283;-80
2024/02/29 01:30:50;;;;;;;28.23;11.43;;;;;;;5.26;80.40;101310.38;124149;1099;104258;-80
2024/02/29 01:33:21;;;;;;;30.05;11.65;;;;;;;5.28;80.62;101306.17;124070;1099;104348;-80
2024/02/29 01:35:52;;;;;;;26.60;10.47;;;;;;;5.29;80.28;101306.28;124164;1099;104393;-80
2024/02/29 01:38:23;;;;;;;30.30;11.57;;;;;;;5.30;80.58;101299.36;124253;1099;104162;-80
2024/02/29 01:40:54;;;;;;;25.13;10.30;;;;;;;5.32;80.38;101300.39;123820;1099;104448;-80
2024/02/29 01:43:29;;;;;;;34.10;11.57;;;;;;;5.33;80.56;101302.18;124009;1099;104175;-80
2024/02/29 01:46:12;;;;;;;26.17;10.17;;;;;;;5.35;80.28;101306.70;124221;1099;104246;-79
2024/02/29 01:48:44;;;;;;;28.43;10.60;;;;;;;5.35;80.10;101306.70;123968;1099;104383;-79
2024/02/29 01:51:15;;;;;;;26.27;10.20;;;;;;;5.37;80.45;101302.50;123984;1099;104195;-79
2024/02/29 01:53:47;;;;;;;26.10;10.50;;;;;;;5.40;80.24;101307.92;123765;1099;104273;-79
2024/02/29 01:56:21;;;;;;;28.27;9.87;;;;;;;5.42;80.57;101296.72;124053;1099;105443;-79
2024/02/29 01:58:56;;;;;;;30.77;10.00;;;;;;;5.43;80.60;101302.03;124120;1099;104271;-79
2024/02/29 02:01:28;;;;;;;26.33;9.67;;;;;;;5.45;80.24;101304.74;123862;1099;104287;-79
2024/02/29 02:03:59;;;;;;;26.33;9.57;;;;;;;5.46;79.99;101302.25;124251;1099;104373;-79
2024/02/29 02:06:31;;;;;;;27.70;10.10;;;;;;;5.49;80.51;101297.25;124138;1099;104245;-80
2024/02/29 02:09:02;;;;;;;23.60;9.43;;;;;;;5.52;80.58;101291.36;124213;1099;104245;-79
2024/02/29 02:11:33;;;;;;;22.00;9.23;;;;;;;5.53;80.62;101290.55;123862;1099;104261;-79
2024/02/29 02:14:05;;;;;;;27.13;9.37;;;;;;;5.55;80.38;101282.05;123979;1099;104341;-79
2024/02/29 02:16:36;;;;;;;23.93;8.97;;;;;;;5.57;80.12;101284.77;124577;1099;104171;-79
2024/02/29 02:19:12;;;;;;;24.23;8.60;;;;;;;5.60;80.85;101286.69;125367;1099;104380;-79
2024/02/29 02:21:44;;;;;;;24.83;9.50;;;;;;;5.61;80.44;101278.05;124891;1100;104175;-79
2024/02/29 02:24:15;;;;;;;27.20;10.20;;;;;;;5.62;80.30;101280.77;124322;1099;104189;-79
2024/02/29 02:26:46;;;;;;;23.40;8.23;;;;;;;5.64;80.66;101287.00;124273;1099;104207;-79
2024/02/29 02:29:18;;;;;;;22.30;9.53;;;;;;;5.66;80.76;101285.39;124253;1099;104361;-79
2024/02/29 02:31:49;;;;;;;28.70;9.55;;;;;;;5.68;80.30;101280.28;124215;1099;104219;-79
2024/02/29 02:34:20;;;;;;;21.83;8.70;;;;;;;5.69;80.40;101287.31;123928;1099;104348;-80
2024/02/29 02:36:51;;;;;;;23.73;8.63;;;;;;;5.70;80.63;101291.70;124036;1098;104348;-79
2024/02/29 02:39:23;;;;;;;24.77;8.47;;;;;;;5.71;80.36;101288.31;123695;1099;104346;-80
2024/02/29 02:41:54;;;;;;;23.73;8.53;;;;;;;5.72;80.26;101292.73;124131;1099;104277;-80
2024/02/29 02:44:25;;;;;;;24.47;8.40;;;;;;;5.76;80.62;101294.72;123773;1099;104238;-80
2024/02/29 02:46:56;;;;;;;23.40;8.77;;;;;;;5.76;80.36;101292.11;124084;1099;104269;-80
2024/02/29 02:49:27;;;;;;;21.67;8.90;;;;;;;5.76;80.50;101293.04;124246;1099;104737;-79
2024/02/29 02:51:58;;;;;;;24.00;8.57;;;;;;;5.79;80.17;101292.33;124223;1099;104384;-80
2024/02/29 02:54:30;;;;;;;23.30;9.10;;;;;;;5.80;80.33;101296.74;124114;1099;104312;-79
2024/02/29 02:57:01;;;;;;;24.37;9.07;;;;;;;5.80;80.66;101291.53;123830;1099;104201;-80
2024/02/29 02:59:32;;;;;;;26.13;8.90;;;;;;;5.82;80.28;101291.64;123750;1102;104329;-80
2024/02/29 03:02:03;;;;;;;19.70;8.50;;;;;;;5.81;80.62;101295.92;123850;1102;104264;-79
2024/02/29 03:04:35;;;;;;;29.83;9.10;;;;;;;5.82;80.40;101294.24;123798;1102;104828;-80
2024/02/29 03:07:06;;;;;;;24.33;8.47;;;;;;;5.81;80.43;101293.31;123758;1099;104351;-80
2024/02/29 03:09:38;;;;;;;25.10;8.63;;;;;;;5.83;80.58;101293.42;123730;1099;104255;-79
2024/02/29 03:12:10;;;;;;;19.93;7.93;;;;;;;5.84;80.61;101292.63;123777;1099;104275;-79
2024/02/29 03:14:41;;;;;;;21.60;8.50;;;;;;;5.84;80.37;101293.52;123823;1099;104357;-79
2024/02/29 03:17:12;;;;;;;26.53;8.33;;;;;;;5.84;80.82;101298.73;123866;1099;104339;-80
2024/02/29 03:19:43;;;;;;;24.70;8.03;;;;;;;5.87;80.42;101300.66;123845;1099;104329;-79
2024/02/29 03:22:14;;;;;;;24.90;8.93;;;;;;;5.87;80.29;101304.16;123794;1102;104284;-79
2024/02/29 03:24:46;;;;;;;27.23;9.03;;;;;;;5.89;80.59;101312.07;123879;1099;104233;-79
2024/02/29 03:27:18;;;;;;;22.70;8.13;;;;;;;5.89;80.48;101315.60;123832;1102;104312;-80
2024/02/29 03:29:49;;;;;;;25.53;8.50;;;;;;;5.91;80.30;101318.31;123807;1099;104337;-79
2024/02/29 03:32:21;;;;;;;24.57;8.47;;;;;;;5.92;80.25;101321.02;123786;1099;104449;-79
2024/02/29 03:34:53;;;;;;;22.63;7.63;;;;;;;5.93;80.33;101314.09;123840;1099;104201;-80
2024/02/29 03:37:24;;;;;;;21.37;8.07;;;;;;;5.95;80.45;101322.91;123921;1099;104274;-79
2024/02/29 03:39:55;;;;;;;21.93;8.07;;;;;;;5.95;80.20;101322.91;124156;1099;104322;-80
2024/02/29 03:42:26;;;;;;;21.80;8.43;;;;;;;5.96;80.27;101329.93;123968;1102;104441;-79
2024/02/29 03:44:57;;;;;;;25.33;7.83;;;;;;;5.98;80.69;101325.75;124093;1098;104168;-79
2024/02/29 03:47:29;;;;;;;20.50;7.57;;;;;;;5.99;80.29;101332.78;123713;1099;104325;-79
2024/02/29 03:50:00;;;;;;;19.73;7.23;;;;;;;6.00;80.63;101329.38;124120;1099;104348;-79
2024/02/29 03:52:31;;;;;;;23.35;7.60;;;;;;;6.01;80.35;101327.67;123929;1099;104354;-79
2024/02/29 03:55:03;;;;;;;19.70;7.55;;;;;;;6.03;80.21;101331.27;124469;1099;104169;-80
2024/02/29 03:57:34;;;;;;;21.00;6.93;;;;;;;6.04;80.49;101340.91;124205;1099;104329;-79
2024/02/29 04:00:10;;;;;;;26.10;7.90;;;;;;;6.06;80.57;101342.83;124327;1099;104251;-79
2024/02/29 04:02:42;;;;;;;22.70;7.53;;;;;;;6.07;80.17;101338.51;123884;1099;104270;-79
2024/02/29 04:05:13;;;;;;;19.93;7.50;;;;;;;6.08;80.41;101353.35;124419;1099;104245;-80
2024/02/29 04:07:44;;;;;;;22.37;8.10;;;;;;;6.08;80.17;101348.14;124240;1099;104366;-79
2024/02/29 04:10:16;;;;;;;22.60;7.83;;;;;;;6.08;80.47;101346.42;123933;1099;104411;-80
2024/02/29 04:12:47;;;;;;;30.07;8.80;;;;;;;6.08;80.30;101346.42;124010;1100;104405;-79
2024/02/29 04:15:18;;;;;;;25.77;8.93;;;;;;;6.11;80.16;101346.63;123920;1099;104226;-80
2024/02/29 04:17:51;;;;;;;22.60;8.87;;;;;;;6.12;80.27;101344.92;124082;1099;105675;-79
2024/02/29 04:20:23;;;;;;;23.83;9.57;;;;;;;6.09;80.25;101343.03;123990;1099;104351;-79
2024/02/29 04:22:54;;;;;;;26.10;9.60;;;;;;;6.09;80.30;101342.11;123993;1099;104409;-79
2024/02/29 04:25:26;;;;;;;21.17;9.53;;;;;;;6.07;80.15;101342.00;124099;1099;104271;-80
2024/02/29 04:27:57;;;;;;;24.70;9.13;;;;;;;6.07;80.23;101344.61;123795;1102;104280;-79
2024/02/29 04:30:29;;;;;;;24.97;9.77;;;;;;;6.08;80.24;101343.82;123946;1099;104651;-79
2024/02/29 04:33:02;;;;;;;25.93;9.60;;;;;;;6.10;80.49;101343.92;124035;1100;104320;-79
2024/02/29 04:35:34;;;;;;;23.27;8.93;;;;;;;6.10;80.31;101339.61;123862;1099;104255;-79
2024/02/29 04:38:05;;;;;;;27.43;9.23;;;;;;;6.13;80.43;101346.73;123770;1102;104294;-79
2024/02/29 04:40:37;;;;;;;24.90;9.37;;;;;;;6.14;80.37;101345.02;124102;1099;104245;-79
2024/02/29 04:43:10;;;;;;;24.07;9.20;;;;;;;6.15;80.35;101350.34;123772;1099;104200;-80
2024/02/29 04:45:41;;;;;;;25.07;8.80;;;;;;;6.17;80.37;101342.63;123990;1099;104326;-79
2024/02/29 04:48:12;;;;;;;24.57;9.23;;;;;;;6.18;80.47;101357.47;123795;1102;104354;-79
2024/02/29 04:50:43;;;;;;;26.33;8.87;;;;;;;6.19;80.28;101348.86;123765;1102;104284;-80
2024/02/29 04:53:15;;;;;;;25.63;8.93;;;;;;;6.20;80.32;101356.78;123899;1099;104351;-80
2024/02/29 04:55:46;;;;;;;22.17;8.90;;;;;;;6.22;80.42;101349.95;123960;1101;104284;-80
2024/02/29 04:58:17;;;;;;;24.17;9.90;;;;;;;6.23;80.58;101353.45;123886;1099;104197;-79
2024/02/29 05:00:49;;;;;;;27.50;10.10;;;;;;;6.23;80.41;101351.78;124075;1099;107067;-79
2024/02/29 05:03:21;;;;;;;25.47;9.07;;;;;;;6.26;80.52;101353.66;124139;1099;104268;-78
2024/02/29 05:05:52;;;;;;;23.70;9.10;;;;;;;6.25;80.31;101351.87;124061;1099;104245;-79
2024/02/29 05:08:23;;;;;;;26.73;9.30;;;;;;;6.27;80.53;101347.66;123851;1099;104255;-80
2024/02/29 05:10:54;;;;;;;26.00;8.93;;;;;;;6.28;80.45;101349.48;124069;1102;118382;-80
2024/02/29 05:13:25;;;;;;;24.90;9.17;;;;;;;6.28;80.35;101354.69;123918;1099;104405;-78
2024/02/29 05:15:56;;;;;;;26.47;9.57;;;;;;;6.28;80.27;101347.77;124027;1099;102316;-79
2024/02/29 05:18:28;;;;;;;26.00;9.20;;;;;;;6.31;80.35;101347.08;123883;1099;104255;-79
2024/02/29 05:20:59;;;;;;;24.27;8.93;;;;;;;6.32;80.52;101351.47;124177;1099;104178;-80
2024/02/29 05:23:30;;;;;;;25.27;9.50;;;;;;;6.33;80.44;101350.67;124058;1099;104299;-79
2024/02/29 05:26:02;;;;;;;24.57;9.83;;;;;;;6.34;80.56;101352.45;124223;1099;104514;-79
2024/02/29 05:28:33;;;;;;;28.17;10.20;;;;;;;6.35;80.65;101353.38;123827;1099;104258;-79
2024/02/29 05:31:04;;;;;;;28.20;10.63;;;;;;;6.36;80.40;101356.09;123833;1099;104230;-79
2024/02/29 05:33:37;;;;;;;29.40;10.60;;;;;;;6.38;80.43;101354.48;124245;1098;104258;-79
2024/02/29 05:36:10;;;;;;;29.57;11.27;;;;;;;6.40;80.42;101344.16;123792;1099;104249;-79
2024/02/29 05:38:44;;;;;;;29.17;10.57;;;;;;;6.39;80.73;101353.69;124465;1101;104348;-80
2024/02/29 05:41:15;;;;;;;28.77;10.75;;;;;;;6.42;80.63;101356.50;124641;1099;104293;-80
2024/02/29 05:43:47;;;;;;;26.47;10.47;;;;;;;6.45;80.41;101354.09;124456;1098;104387;-79
2024/02/29 05:46:19;;;;;;;28.13;10.40;;;;;;;6.47;80.11;101357.70;124766;1099;104248;-79
2024/02/29 05:48:52;;;;;;;27.80;11.13;;;;;;;6.50;80.51;101366.52;124628;1099;104277;-79
2024/02/29 05:51:25;;;;;;;27.13;11.45;;;;;;;6.50;80.45;101364.83;124238;1102;104249;-80
2024/02/29 05:53:56;;;;;;;24.73;11.07;;;;;;;6.52;80.72;101365.82;124577;1099;104243;-79
2024/02/29 05:56:28;;;;;;;27.23;11.00;;;;;;;6.53;80.46;101372.85;124339;1099;104213;-79
2024/02/29 05:58:59;;;;;;;30.67;11.73;;;;;;;6.55;80.16;101375.56;124500;1099;104252;-79
2024/02/29 06:01:31;;;;;;;29.73;11.43;;;;;;;6.58;80.48;101375.77;124638;1099;104245;-79
2024/02/29 06:04:02;;;;;;;25.87;10.40;;;;;;;6.58;80.53;101371.44;124903;1099;104350;-80
2024/02/29 06:06:34;;;;;;;26.73;10.70;;;;;;;6.60;80.33;101375.05;125093;1098;104264;-81
2024/02/29 06:09:05;;;;;;;25.80;10.60;;;;;;;6.64;80.57;101377.06;124997;1099;104275;-80
2024/02/29 06:11:36;;;;;;;25.25;10.80;;;;;;;6.67;80.75;101373.77;124597;1099;104181;-80
2024/02/29 06:14:08;;;;;;;30.20;11.27;;;;;;;6.71;80.36;101370.53;124813;1100;104249;-80
2024/02/29 06:16:39;;;;;;;30.03;10.80;;;;;;;6.74;80.76;101380.27;124708;1102;104329;-81
2024/02/29 06:19:12;;;;;;;32.97;11.73;;;;;;;6.79;80.73;101381.47;124620;1099;104258;-81
2024/02/29 06:21:43;;;;;;;33.97;11.00;;;;;;;6.80;80.81;101381.56;124773;1099;104175;-80
2024/02/29 06:24:18;;;;;;;31.67;11.53;;;;;;;6.84;80.65;101375.75;125099;1098;104198;-80
2024/02/29 06:26:50;;;;;;;30.10;12.17;;;;;;;6.89;80.78;101370.83;124901;1099;104201;-81
2024/02/29 06:29:21;;;;;;;28.37;11.10;;;;;;;6.93;80.55;101370.20;124770;1098;104184;-80
2024/02/29 06:31:53;;;;;;;28.53;11.43;;;;;;;6.99;80.54;101375.81;124888;1099;104364;-81
2024/02/29 06:34:24;;;;;;;28.33;11.47;;;;;;;7.05;80.78;101375.32;125024;1099;104159;-80
2024/02/29 06:36:55;;;;;;;33.87;11.53;;;;;;;7.09;80.85;101382.55;125050;1099;104304;-81
2024/02/29 06:39:26;;;;;;;30.63;12.03;;;;;;;7.12;80.99;101376.60;124966;1099;104281;-81
2024/02/29 06:41:57;;;;;;;28.37;11.07;;;;;;;7.13;80.81;101376.70;125178;1099;102126;-80
2024/02/29 06:44:32;;;;;;;29.70;11.13;;;;;;;7.17;80.67;101378.71;124811;1099;104368;-79
2024/02/29 06:47:02;;;;;;;;;;;;;;;7.22;80.56;101388.55;124849;1099;104271;-81
2024/02/29 06:49:33;;;;;;;28.83;10.93;;;;;;;7.24;80.66;101384.32;125158;1099;102013;-81
2024/02/29 06:52:04;;;;;;;24.13;11.17;;;;;;;7.25;80.28;101389.64;124934;1099;104232;-80
2024/02/29 06:54:35;;;;;;;26.10;11.00;;;;;;;7.28;79.84;101386.33;125022;1099;101978;-80
2024/02/29 06:57:07;;;;;;;32.37;11.23;;;;;;;7.30;81.05;101384.71;125273;1099;102766;-80
2024/02/29 06:59:38;;;;;;;31.77;11.83;;;;;;;7.29;80.63;101380.28;125288;1099;101940;-79
2024/02/29 07:02:10;;;;;;;28.53;12.00;;;;;;;7.33;80.32;101387.52;125061;1099;103182;-78
2024/02/29 07:04:42;;;;;;;26.13;11.67;;;;;;;7.35;80.23;101384.20;125080;1099;104298;-77
2024/02/29 07:07:14;;;;;;;29.93;11.83;;;;;;;7.34;80.17;101384.11;124555;1099;104222;-77
2024/02/29 07:09:45;;;;;;;30.07;12.20;;;;;;;7.34;80.63;101382.39;125003;1099;104310;-77
2024/02/29 07:12:17;;;;;;;31.17;12.43;;;;;;;7.37;80.08;101385.19;125195;1099;104217;-76
2024/02/29 07:14:51;;;;;;;28.43;12.07;;;;;;;7.42;80.49;101390.70;125257;1098;104166;-77
2024/02/29 07:17:23;;;;;;;33.57;13.30;;;;;;;7.46;80.65;101386.56;124715;1102;102874;-76
2024/02/29 07:20:03;;;;;;;33.30;12.03;;;;;;;7.47;80.38;101381.44;124948;1099;104213;-76
2024/02/29 07:22:37;;;;;;;28.80;12.33;;;;;;;7.49;80.63;101374.59;126026;1099;102396;-76
2024/02/29 07:25:09;;;;;;;31.17;12.70;;;;;;;7.52;80.11;101377.39;125888;1099;102640;-76
2024/02/29 07:27:45;;;;;;;28.47;12.60;;;;;;;7.54;79.92;101387.94;126066;1099;102444;-77
2024/02/29 07:30:17;;;;;;;30.03;12.60;;;;;;;7.55;80.32;101385.42;125767;1098;103539;-77
2024/02/29 07:32:49;;;;;;;29.37;13.00;;;;;;;7.57;79.98;101380.29;124914;1099;102355;-77
2024/02/29 07:35:20;;;;;;;29.17;12.27;;;;;;;7.60;80.20;101384.81;125115;1099;103467;-77
2024/02/29 07:37:52;;;;;;;30.87;12.53;;;;;;;7.64;80.32;101377.26;125076;1099;104242;-76
2024/02/29 07:40:24;;;;;;;30.33;12.60;;;;;;;7.71;80.34;101375.92;125020;1099;104287;-76
2024/02/29 07:42:55;;;;;;;27.73;12.30;;;;;;;7.80;80.33;101378.20;124562;1099;102693;-77
2024/02/29 07:45:27;;;;;;;27.87;11.73;;;;;;;7.85;80.26;101379.37;124636;1099;104402;-76
2024/02/29 07:48:00;;;;;;;27.07;11.57;;;;;;;7.85;80.29;101375.07;124663;1099;104249;-76
2024/02/29 07:50:33;;;;;;;27.13;12.40;;;;;;;7.84;79.93;101378.48;124481;1099;104169;-77
2024/02/29 07:53:03;;;;;;;;;;;;;;;7.84;79.66;101381.09;124646;1099;104179;-76
2024/02/29 07:55:35;;;;;;;30.73;12.00;;;;;;;7.89;79.76;101378.77;124977;1099;104361;-77
2024/02/29 07:58:06;;;;;;;26.53;11.03;;;;;;;7.95;80.63;101383.44;125117;1099;102193;-77
2024/02/29 08:00:38;;;;;;;27.43;12.17;;;;;;;7.98;79.88;101386.23;124817;1099;104281;-77
2024/02/29 08:03:10;;;;;;;26.40;12.43;;;;;;;7.97;80.06;101387.06;124832;1099;101993;-77
2024/02/29 08:05:41;;;;;;;31.80;12.40;;;;;;;7.93;79.94;101388.57;124756;1099;104139;-77
2024/02/29 08:08:13;;;;;;;26.80;11.27;;;;;;;7.93;79.55;101399.02;124542;1098;103855;-77
2024/02/29 08:10:44;;;;;;;24.57;11.10;;;;;;;7.95;80.34;101397.43;124700;1099;104054;-77
2024/02/29 08:13:15;;;;;;;28.90;11.33;;;;;;;7.98;80.58;101396.69;124857;1099;103925;-78
2024/02/29 08:15:47;;;;;;;23.47;10.47;;;;;;;7.99;80.02;101401.12;124983;1099;104370;-77
2024/02/29 08:18:21;;;;;;;22.77;10.37;;;;;;;7.98;79.65;101396.69;124956;1099;104239;-77
2024/02/29 08:20:53;;;;;;;24.45;9.83;;;;;;;8.00;79.91;101393.37;125047;1099;104189;-77
2024/02/29 08:23:25;;;;;;;24.33;9.97;;;;;;;8.07;79.69;101385.10;124987;1099;103660;-77
2024/02/29 08:25:56;;;;;;;26.37;10.83;;;;;;;8.08;79.31;101385.99;124768;1099;104275;-78
2024/02/29 08:28:28;;;;;;;28.20;11.17;;;;;;;8.11;79.66;101388.79;124625;1099;104139;-78
2024/02/29 08:30:59;;;;;;;29.37;11.13;;;;;;;8.11;79.21;101380.95;124655;1099;102849;-78
2024/02/29 08:33:33;;;;;;;24.80;10.57;;;;;;;8.12;79.60;101384.45;124749;1099;104207;-77
2024/02/29 08:36:04;;;;;;;;;;;;;;;8.15;78.97;101380.33;124888;1099;102590;-78
2024/02/29 08:38:39;;;;;;;24.77;10.47;;;;;;;8.18;79.18;101383.13;124823;1099;104134;-77
2024/02/29 08:41:13;;;;;;;29.70;11.63;;;;;;;8.24;79.47;101378.27;124858;1099;104281;-78
2024/02/29 08:43:46;;;;;;;27.93;11.27;;;;;;;8.28;79.41;101380.23;124565;1100;103713;-78
2024/02/29 08:46:26;;;;;;;28.80;11.45;;;;;;;8.33;79.56;101383.11;124629;1099;104191;-78
2024/02/29 08:49:02;;;;;;;29.03;11.37;;;;;;;8.35;79.07;101383.20;126189;1098;102419;-78
2024/02/29 08:51:37;;;;;;;26.90;11.00;;;;;;;8.38;79.06;101388.61;125238;1099;103613;-78
2024/02/29 08:54:08;;;;;;;29.67;12.07;;;;;;;8.32;79.59;101367.33;124822;1099;104182;-78
2024/02/29 08:56:40;;;;;;;28.00;12.27;;;;;;;8.46;79.11;101387.38;125001;1099;104226;-78
2024/02/29 08:59:12;;;;;;;30.33;11.53;;;;;;;8.48;79.55;101382.23;124632;1102;102791;-77
2024/02/29 09:01:44;;;;;;;26.13;10.63;;;;;;;8.49;79.44;101382.33;124631;1100;104475;-78
2024/02/29 09:04:16;;;;;;;27.20;10.63;;;;;;;8.48;78.54;101377.00;124661;1099;104238;-78
2024/02/29 09:06:48;;;;;;;28.63;11.07;;;;;;;8.48;79.15;101379.62;124482;1102;102221;-78
2024/02/29 09:09:21;;;;;;;23.97;11.10;;;;;;;8.52;78.86;101382.50;124498;1099;104396;-78
2024/02/29 09:11:52;;;;;;;28.37;10.17;;;;;;;8.60;78.91;101385.56;124666;1099;103705;-78
2024/02/29 09:14:23;;;;;;;26.20;12.50;;;;;;;8.64;79.00;101390.17;124683;1099;104252;-77
2024/02/29 09:16:55;;;;;;;23.50;9.97;;;;;;;8.68;78.88;101383.39;125027;1099;104223;-79
2024/02/29 09:19:29;;;;;;;25.47;10.07;;;;;;;8.71;78.38;101388.80;124582;1099;101935;-79
2024/02/29 09:22:00;;;;;;;25.40;10.05;;;;;;;8.74;78.27;101395.12;124547;1099;104249;-78
2024/02/29 09:24:33;;;;;;;28.70;9.60;;;;;;;8.80;78.60;101392.87;124405;1100;104380;-79
2024/02/29 09:27:07;;;;;;;23.33;10.40;;;;;;;8.81;78.84;101397.27;124432;1099;104415;-79
2024/02/29 09:29:42;;;;;;;27.33;10.67;;;;;;;8.79;78.59;101388.44;124455;1098;104216;-78
2024/02/29 09:32:13;;;;;;;26.40;10.33;;;;;;;8.80;77.99;101391.94;124492;1102;104252;-78
2024/02/29 09:34:46;;;;;;;26.10;10.30;;;;;;;8.83;78.30;101393.84;124487;1099;104258;-78
2024/02/29 09:37:19;;;;;;;26.50;10.00;;;;;;;8.83;77.60;101399.97;124751;1099;104173;-78
2024/02/29 09:39:50;;;;;;;23.60;9.67;;;;;;;8.80;78.49;101405.03;124713;1099;104217;-78
2024/02/29 09:42:22;;;;;;;24.87;9.33;;;;;;;8.83;77.84;101405.20;124950;1099;104306;-78
2024/02/29 09:44:54;;;;;;;24.13;8.93;;;;;;;8.88;77.98;101403.77;124558;1103;103100;-78
2024/02/29 09:47:28;;;;;;;24.50;9.30;;;;;;;8.91;78.12;101398.72;124661;1099;104281;-78
2024/02/29 09:50:00;;;;;;;22.45;9.35;;;;;;;8.94;77.77;101392.73;124543;1099;104179;-78
2024/02/29 09:52:36;;;;;;;26.23;9.83;;;;;;;8.98;77.62;101389.48;124431;1099;104316;-78
2024/02/29 09:55:14;;;;;;;23.50;9.13;;;;;;;9.00;77.21;101388.73;124576;1102;104242;-78
2024/02/29 09:57:48;;;;;;;26.53;10.00;;;;;;;8.97;76.72;101392.91;124347;1099;102146;-78
2024/02/29 10:00:20;;;;;;;23.30;9.53;;;;;;;8.95;77.65;101390.20;124710;1099;104171;-78
2024/02/29 10:02:52;;;;;;;26.43;9.93;;;;;;;9.00;77.37;101378.26;124856;1099;104350;-78
2024/02/29 10:05:25;;;;;;;27.00;9.35;;;;;;;9.07;77.42;101379.53;124705;1099;104264;-78
2024/02/29 10:07:58;;;;;;;19.40;8.73;;;;;;;9.11;77.66;101375.35;124550;1099;104210;-78
2024/02/29 10:10:30;;;;;;;24.50;9.27;;;;;;;9.14;77.73;101375.52;125806;1101;101984;-78
2024/02/29 10:13:05;;;;;;;20.50;8.40;;;;;;;9.18;77.25;101381.02;124616;1102;104341;-78
2024/02/29 10:15:37;;;;;;;24.23;10.00;;;;;;;9.20;77.32;101373.24;124574;1102;102611;-78
2024/02/29 10:18:11;;;;;;;22.73;9.07;;;;;;;9.25;77.77;101386.59;124660;1099;102734;-79
2024/02/29 10:20:44;;;;;;;22.23;9.10;;;;;;;9.25;76.87;101377.00;124761;1102;103507;-78
2024/02/29 10:23:17;;;;;;;26.20;9.00;;;;;;;9.22;76.59;101374.22;125844;1099;102122;-78
2024/02/29 10:25:51;;;;;;;23.90;9.18;;;;;;;9.23;76.97;101357.70;125979;1098;102559;-79
2024/02/29 10:28:22;;;;;;;24.43;9.30;;;;;;;9.26;77.31;101355.25;126063;1102;103838;-78
2024/02/29 10:30:57;;;;;;;23.60;9.17;;;;;;;9.30;76.19;101353.69;125101;1102;102886;-78
2024/02/29 10:33:29;;;;;;;24.17;9.20;;;;;;;9.30;76.45;101351.99;124695;1099;104095;-77
2024/02/29 10:36:13;;;;;;;24.90;9.40;;;;;;;9.32;77.21;101349.45;124608;1099;104245;-78
2024/02/29 10:38:45;;;;;;;26.77;9.27;;;;;;;9.39;76.81;101361.16;124609;1099;103401;-78
2024/02/29 10:41:17;;;;;;;25.43;9.23;;;;;;;9.45;76.89;101361.49;124452;1099;103699;-78
2024/02/29 10:43:56;;;;;;;24.23;8.90;;;;;;;9.48;76.77;101365.16;124771;1099;104412;-78
2024/02/29 10:46:27;;;;;;;25.23;9.50;;;;;;;9.52;76.97;101369.77;124527;1102;104724;-78
2024/02/29 10:49:04;;;;;;;22.73;9.57;;;;;;;9.56;76.74;101360.34;124560;1099;104207;-78
2024/02/29 10:51:44;;;;;;;29.57;9.70;;;;;;;9.59;76.09;101354.38;124824;1099;104178;-78
2024/02/29 10:54:20;;;;;;;24.55;9.50;;;;;;;9.63;76.14;101353.70;124737;1102;103668;-78
2024/02/29 10:56:58;;;;;;;24.93;9.10;;;;;;;9.62;75.88;101352.80;124668;1099;104249;-78
2024/02/29 10:59:31;;;;;;;24.20;9.20;;;;;;;9.66;76.65;101349.55;124738;1099;103449;-78
2024/02/29 11:02:04;;;;;;;25.12;9.53;;;;;;;9.70;76.14;101340.11;124641;1102;104188;-78
2024/02/29 11:04:38;;;;;;;21.77;9.43;;;;;;;9.75;75.78;101345.59;124796;1099;102560;-78
2024/02/29 11:07:08;;;;;;;;;;;;;;;9.74;75.38;101347.33;124777;1099;103067;-79
2024/02/29 11:09:40;;;;;;;24.90;8.90;;;;;;;9.76;75.98;101345.67;124679;1099;104347;-78
2024/02/29 11:12:13;;;;;;;24.13;9.53;;;;;;;9.77;76.05;101342.25;124790;1099;103158;-77
2024/02/29 11:14:48;;;;;;;24.98;8.63;;;;;;;9.79;75.38;101337.08;124801;1099;104224;-78
2024/02/29 11:17:20;;;;;;;21.43;9.00;;;;;;;9.82;75.35;101334.63;125259;1099;104236;-78
2024/02/29 11:20:03;;;;;;;21.93;9.20;;;;;;;9.84;75.05;101335.59;125257;1099;104107;-78
2024/02/29 11:22:36;;;;;;;25.23;9.63;;;;;;;9.88;75.52;101330.59;124692;1099;104299;-78
2024/02/29 11:25:19;;;;;;;24.57;9.43;;;;;;;9.94;75.24;101321.23;125186;1099;102304;-78
2024/02/29 11:27:52;;;;;;;23.47;8.67;;;;;;;9.92;74.68;101326.39;124616;1102;104267;-78
2024/02/29 11:30:25;;;;;;;19.87;8.43;;;;;;;9.90;74.55;101328.05;125094;1099;104571;-80